Terminal Aerodrome Forecast
Issued by NWS

Home | Current Version | Previous Version | Text Only | Print | Product List | Glossary On
Versions: 1 2 3 4 5 6 7 8 9 10 11 12 13 14 15 16
000
FTUS43 KPAH 261720
TAFCGI
TAF
KCGI 261720Z 2618/2718 35015G21KT P6SM OVC015
     FM262300 36011KT P6SM OVC020
     FM270600 36008KT P6SM SCT025 BKN040
     FM271500 01010KT P6SM BKN025=

USA.gov is the U.S. government's official web portal to all federal, state and local government web resources and services.